Time;durP1;ratioP1;P1;durP2;ratioP2;P2;SDS_P1;SDS_P2;PMS_P1;PMS_P2;Temp;Humidity;BMP_temperature;BMP_pressure;BME280_temperature;BME280_humidity;BME280_pressure;Samples;Min_cycle;Max_cycle;Signal;HPM_P1;HPM_P2
2023/04/22 00:03:02;;;;;;;;;;;;;;;9.28;80.93359;100922.5;;;;-71
2023/04/22 00:08:01;;;;;;;;;;;;;;;9.23;80.88184;100924.6;;;;-71
2023/04/22 00:13:01;;;;;;;;;;;;;;;9.19;80.59766;100922.3;;;;-71
2023/04/22 00:13:37;;;;;;;6.8;3.7;;;;;;;;;;;;;-70
2023/04/22 00:18:01;;;;;;;;;;;;;;;9.12;81.13672;100920.1;;;;-72
2023/04/22 00:23:00;;;;;;;;;;;;;;;9.07;81.30273;100914.6;;;;-73
2023/04/22 00:28:01;;;;;;;;;;;;;;;9.04;81.11035;100921.8;;;;-72
2023/04/22 00:33:01;;;;;;;;;;;;;;;8.99;81.29883;100912.3;;;;-71
2023/04/22 00:38:01;;;;;;;;;;;;;;;8.97;81.53613;100924;;;;-71
2023/04/22 00:43:01;;;;;;;;;;;;;;;8.92;81.21875;100925.6;;;;-73
2023/04/22 00:43:37;;;;;;;6.3;3.7;;;;;;;;;;;;;-70
2023/04/22 00:48:01;;;;;;;;;;;;;;;8.87;81.10059;100922.4;;;;-72
2023/04/22 00:53:02;;;;;;;;;;;;;;;8.81;80.71582;100924.5;;;;-71
2023/04/22 00:58:05;;;;;;;;;;;;;;;8.74;80.75684;100923.8;;;;-71
2023/04/22 01:03:06;;;;;;;;;;;;;;;8.73;80.62305;100927.8;;;;-70
2023/04/22 01:08:01;;;;;;;;;;;;;;;8.64;80.75;100919.3;;;;-70
2023/04/22 01:13:01;;;;;;;;;;;;;;;8.61;80.47852;100923.5;;;;-72
2023/04/22 01:13:39;;;;;;;6;3.5;;;;;;;;;;;;;-71
2023/04/22 01:18:02;;;;;;;;;;;;;;;8.57;80.38184;100922.8;;;;-70
2023/04/22 01:23:05;;;;;;;;;;;;;;;8.49;79.88379;100931.2;;;;-71
2023/04/22 01:28:02;;;;;;;;;;;;;;;8.42;80.35547;100932.6;;;;-71
2023/04/22 01:33:01;;;;;;;;;;;;;;;8.35;80.42969;100938.2;;;;-70
2023/04/22 01:38:04;;;;;;;;;;;;;;;8.26;80.33887;100937.4;;;;-72
2023/04/22 01:43:00;;;;;;;;;;;;;;;8.2;80.5918;100937.1;;;;-71
2023/04/22 01:43:40;;;;;;;6.8;3.9;;;;;;;;;;;;;-71
2023/04/22 01:48:01;;;;;;;;;;;;;;;8.14;80.30469;100935;;;;-71
2023/04/22 01:53:01;;;;;;;;;;;;;;;8.07;80.23633;100932.5;;;;-72
2023/04/22 01:58:01;;;;;;;;;;;;;;;8.02;80.67871;100939.9;;;;-73
2023/04/22 02:03:00;;;;;;;;;;;;;;;7.94;80.16895;100937.7;;;;-70
2023/04/22 02:08:01;;;;;;;;;;;;;;;7.9;80.53418;100934.5;;;;-71
2023/04/22 02:13:02;;;;;;;;;;;;;;;7.82;80.42188;100935;;;;-72
2023/04/22 02:13:46;;;;;;;7.4;4.1;;;;;;;;;;;;;-71
2023/04/22 02:18:02;;;;;;;;;;;;;;;7.8;80.22949;100930.8;;;;-71
2023/04/22 02:23:03;;;;;;;;;;;;;;;7.74;80.87891;100937.1;;;;-71
2023/04/22 02:28:02;;;;;;;;;;;;;;;7.68;81.80176;100934.4;;;;-70
2023/04/22 02:33:01;;;;;;;;;;;;;;;7.64;81.71777;100930.9;;;;-72
2023/04/22 02:38:04;;;;;;;;;;;;;;;7.65;82.08203;100931.9;;;;-70
2023/04/22 02:43:01;;;;;;;;;;;;;;;7.59;81.75293;100925.4;;;;-69
2023/04/22 02:43:45;;;;;;;9.8;4.8;;;;;;;;;;;;;-72
2023/04/22 02:48:01;;;;;;;;;;;;;;;7.55;82.0752;100918.8;;;;-70
2023/04/22 02:53:00;;;;;;;;;;;;;;;7.53;81.8291;100915.2;;;;-71
2023/04/22 02:58:00;;;;;;;;;;;;;;;7.52;81.67383;100912.9;;;;-72
2023/04/22 03:03:02;;;;;;;;;;;;;;;7.46;81.30078;100907.2;;;;-71
2023/04/22 03:08:00;;;;;;;;;;;;;;;7.45;81.84668;100905;;;;-69
2023/04/22 03:13:02;;;;;;;;;;;;;;;7.42;81.52344;100901.7;;;;-71
2023/04/22 03:13:44;;;;;;;10;5.3;;;;;;;;;;;;;-71
2023/04/22 03:18:02;;;;;;;;;;;;;;;7.37;81.54785;100901.2;;;;-70
2023/04/22 03:23:05;;;;;;;;;;;;;;;7.34;81.2666;100893.8;;;;-69
2023/04/22 03:28:01;;;;;;;;;;;;;;;7.24;81.33496;100897;;;;-70
2023/04/22 03:33:01;;;;;;;;;;;;;;;7.2;81.1084;100886.2;;;;-69
2023/04/22 03:38:03;;;;;;;;;;;;;;;7.17;80.76172;100880.8;;;;-70
2023/04/22 03:43:03;;;;;;;;;;;;;;;7.15;80.50586;100877.2;;;;-70
2023/04/22 03:43:48;;;;;;;11.7;5.8;;;;;;;;;;;;;-72
2023/04/22 03:48:03;;;;;;;;;;;;;;;7.08;80.86523;100876.5;;;;-70
2023/04/22 03:53:00;;;;;;;;;;;;;;;7;80.6543;100873.2;;;;-72
2023/04/22 03:58:01;;;;;;;;;;;;;;;6.96;80.4834;100873.1;;;;-71
2023/04/22 04:03:01;;;;;;;;;;;;;;;6.93;80.4873;100867.7;;;;-69
2023/04/22 04:08:00;;;;;;;;;;;;;;;6.86;80.91309;100858.5;;;;-70
2023/04/22 04:13:01;;;;;;;;;;;;;;;6.81;81.05762;100860.5;;;;-71
2023/04/22 04:13:47;;;;;;;10.8;6;;;;;;;;;;;;;-72
2023/04/22 04:18:01;;;;;;;;;;;;;;;6.77;80.73145;100856.6;;;;-70
2023/04/22 04:23:00;;;;;;;;;;;;;;;6.75;80.47559;100853.8;;;;-72
2023/04/22 04:28:01;;;;;;;;;;;;;;;6.72;80.26172;100850.8;;;;-71
2023/04/22 04:33:05;;;;;;;;;;;;;;;6.68;80.02539;100848.8;;;;-71
2023/04/22 04:38:04;;;;;;;;;;;;;;;6.65;80.26172;100850.2;;;;-70
2023/04/22 04:43:01;;;;;;;;;;;;;;;6.66;79.89941;100848.2;;;;-70
2023/04/22 04:43:55;;;;;;;10.6;5.8;;;;;;;;;;;;;-70
2023/04/22 04:48:11;;;;;;;;;;;;;;;6.6;79.83301;100851.1;;;;-70
2023/04/22 04:53:03;;;;;;;;;;;;;;;6.58;79.80762;100854.3;;;;-71
2023/04/22 04:58:04;;;;;;;;;;;;;;;6.61;79.64941;100855.4;;;;-71
2023/04/22 05:03:01;;;;;;;;;;;;;;;6.68;79.80371;100843.7;;;;-72
2023/04/22 05:08:04;;;;;;;;;;;;;;;6.7;79.59863;100841.7;;;;-70
2023/04/22 05:13:01;;;;;;;;;;;;;;;6.76;79.57813;100840.4;;;;-69
2023/04/22 05:13:49;;;;;;;11.1;5.4;;;;;;;;;;;;;-71
2023/04/22 05:18:00;;;;;;;;;;;;;;;6.8;79.4541;100844.3;;;;-71
2023/04/22 05:23:01;;;;;;;;;;;;;;;6.86;79.34375;100846.1;;;;-75
2023/04/22 05:28:00;;;;;;;;;;;;;;;6.94;79.93164;100852.8;;;;-75
2023/04/22 05:33:00;;;;;;;;;;;;;;;7;79.03027;100844.1;;;;-74
2023/04/22 05:38:03;;;;;;;;;;;;;;;7.05;78.99414;100849.5;;;;-74
2023/04/22 05:43:01;;;;;;;;;;;;;;;7.11;79.07227;100845.9;;;;-74
2023/04/22 05:43:50;;;;;;;9.3;5.6;;;;;;;;;;;;;-75
2023/04/22 05:48:02;;;;;;;;;;;;;;;7.2;78.95508;100852.3;;;;-76
2023/04/22 05:53:01;;;;;;;;;;;;;;;7.29;78.76465;100857.3;;;;-75
2023/04/22 05:58:01;;;;;;;;;;;;;;;7.37;78.88965;100852.5;;;;-75
2023/04/22 06:03:01;;;;;;;;;;;;;;;7.46;78.71875;100853.6;;;;-74
2023/04/22 06:08:01;;;;;;;;;;;;;;;7.56;78.47168;100863.3;;;;-74
2023/04/22 06:13:00;;;;;;;;;;;;;;;7.65;78.52148;100859;;;;-75
2023/04/22 06:13:54;;;;;;;10.4;5.8;;;;;;;;;;;;;-74
2023/04/22 06:18:03;;;;;;;;;;;;;;;7.74;78.4502;100855.6;;;;-76
2023/04/22 06:23:04;;;;;;;;;;;;;;;7.81;78.57129;100846.6;;;;-69
2023/04/22 06:28:03;;;;;;;;;;;;;;;7.88;78.5957;100840.4;;;;-71
2023/04/22 06:33:01;;;;;;;;;;;;;;;7.97;78.80957;100832.8;;;;-70
2023/04/22 06:38:00;;;;;;;;;;;;;;;8.04;78.53711;100824.6;;;;-71
2023/04/22 06:43:01;;;;;;;;;;;;;;;8.16;78.27344;100811.1;;;;-71
2023/04/22 06:43:55;;;;;;;10.1;5.8;;;;;;;;;;;;;-72
2023/04/22 06:48:00;;;;;;;;;;;;;;;8.24;78.45215;100809.6;;;;-70
2023/04/22 06:53:03;;;;;;;;;;;;;;;8.36;78.42871;100804.2;;;;-70
2023/04/22 06:58:00;;;;;;;;;;;;;;;8.47;78.9668;100811;;;;-70
2023/04/22 07:03:02;;;;;;;;;;;;;;;8.66;79.56348;100803.4;;;;-74
2023/04/22 07:08:01;;;;;;;;;;;;;;;8.87;79.00586;100785.8;;;;-74
2023/04/22 07:13:13;;;;;;;;;;;;;;;9.03;78.55078;100795.7;;;;-75
2023/04/22 07:13:55;;;;;;;10;6.1;;;;;;;;;;;;;-76
2023/04/22 07:18:03;;;;;;;;;;;;;;;9.21;78.3623;100783.6;;;;-75
2023/04/22 07:23:01;;;;;;;;;;;;;;;9.35;77.92383;100775.5;;;;-74
2023/04/22 07:28:03;;;;;;;;;;;;;;;9.49;76.3916;100784.3;;;;-75
2023/04/22 07:33:03;;;;;;;;;;;;;;;9.67;76.58789;100777.4;;;;-76
2023/04/22 07:38:01;;;;;;;;;;;;;;;9.83;77.47949;100788.9;;;;-74
2023/04/22 07:43:00;;;;;;;;;;;;;;;10.08;77.69922;100798.1;;;;-74
2023/04/22 07:44:05;;;;;;;14;7.3;;;;;;;;;;;;;-74
2023/04/22 07:48:01;;;;;;;;;;;;;;;10.37;77.07617;100795.7;;;;-74
2023/04/22 07:53:01;;;;;;;;;;;;;;;10.65;77.13672;100794.6;;;;-74
2023/04/22 07:58:06;;;;;;;;;;;;;;;10.92;77.46191;100788.8;;;;-75
2023/04/22 08:03:00;;;;;;;;;;;;;;;11.24;75.70996;100783.7;;;;-74
2023/04/22 08:08:00;;;;;;;;;;;;;;;11.63;76.08691;100783.5;;;;-74
2023/04/22 08:13:01;;;;;;;;;;;;;;;11.99;76.96191;100786.9;;;;-73
2023/04/22 08:14:00;;;;;;;12.8;7.6;;;;;;;;;;;;;-75
2023/04/22 08:18:01;;;;;;;;;;;;;;;12.34;76.27734;100789.8;;;;-74
2023/04/22 08:23:01;;;;;;;;;;;;;;;12.69;76.10352;100788.9;;;;-74
2023/04/22 08:28:00;;;;;;;;;;;;;;;13.01;75.73828;100776.7;;;;-75
2023/04/22 08:33:00;;;;;;;;;;;;;;;13.55;76.71191;100761.1;;;;-74
2023/04/22 08:38:01;;;;;;;;;;;;;;;14.12;75.90625;100744.5;;;;-74
2023/04/22 08:43:00;;;;;;;;;;;;;;;14.56;75.45605;100737.4;;;;-75
2023/04/22 08:43:59;;;;;;;12.8;7.8;;;;;;;;;;;;;-75
2023/04/22 08:48:01;;;;;;;;;;;;;;;14.9;74.62891;100734.6;;;;-74
2023/04/22 08:53:00;;;;;;;;;;;;;;;15.11;74.86719;100722.9;;;;-74
2023/04/22 08:58:02;;;;;;;;;;;;;;;15.36;74.02539;100726.9;;;;-73
2023/04/22 09:03:06;;;;;;;;;;;;;;;15.54;73.57227;100723.8;;;;-73
2023/04/22 09:08:01;;;;;;;;;;;;;;;15.72;72.90527;100734.9;;;;-73
2023/04/22 09:13:01;;;;;;;;;;;;;;;16.11;73.72363;100731.2;;;;-74
2023/04/22 09:14:01;;;;;;;10.7;7.1;;;;;;;;;;;;;-73
2023/04/22 09:18:01;;;;;;;;;;;;;;;16.57;72.83398;100739.7;;;;-72
2023/04/22 09:23:04;;;;;;;;;;;;;;;17.03;72.68262;100731.6;;;;-67
2023/04/22 09:28:02;;;;;;;;;;;;;;;17.48;72.13672;100730.9;;;;-68
2023/04/22 09:33:01;;;;;;;;;;;;;;;17.89;71.50391;100727.8;;;;-67
2023/04/22 09:38:01;;;;;;;;;;;;;;;18.32;70.79395;100707.1;;;;-67
2023/04/22 09:43:01;;;;;;;;;;;;;;;18.73;70.78125;100705.1;;;;-67
2023/04/22 09:44:05;;;;;;;9.4;6.3;;;;;;;;;;;;;-68
2023/04/22 09:48:03;;;;;;;;;;;;;;;19.09;69.32129;100706.6;;;;-66
2023/04/22 09:53:01;;;;;;;;;;;;;;;19.39;70.51367;100701.2;;;;-66
2023/04/22 09:58:10;;;;;;;;;;;;;;;19.62;69.3252;100693.1;;;;-73
2023/04/22 10:03:00;;;;;;;;;;;;;;;19.72;68.41113;100668.8;;;;-73
2023/04/22 10:08:01;;;;;;;;;;;;;;;19.83;69.43555;100668.3;;;;-73
2023/04/22 10:13:03;;;;;;;;;;;;;;;19.87;69.125;100648.1;;;;-73
2023/04/22 10:14:09;;;;;;;8.2;5.6;;;;;;;;;;;;;-73
2023/04/22 10:18:07;;;;;;;;;;;;;;;19.89;69.21875;100663.2;;;;-75
2023/04/22 10:23:01;;;;;;;;;;;;;;;19.82;67.1543;100674.9;;;;-73
2023/04/22 10:28:04;;;;;;;;;;;;;;;19.58;67.56152;100690.6;;;;-74
2023/04/22 10:33:10;;;;;;;;;;;;;;;19.38;67.13477;100700.9;;;;-73
2023/04/22 10:38:03;;;;;;;;;;;;;;;19.27;67.42285;100703.4;;;;-74
2023/04/22 10:43:02;;;;;;;;;;;;;;;19.28;68.43262;100700.6;;;;-72
2023/04/22 10:44:13;;;;;;;8.9;5.8;;;;;;;;;;;;;-73
2023/04/22 10:48:05;;;;;;;;;;;;;;;19.4;68.11133;100701.4;;;;-73
2023/04/22 10:53:13;;;;;;;;;;;;;;;19.36;67.41406;100714.5;;;;-74
2023/04/22 10:58:04;;;;;;;;;;;;;;;19.2;66.25684;100712.8;;;;-75
2023/04/22 11:03:10;;;;;;;;;;;;;;;19.05;67.08496;100707.3;;;;-74
2023/04/22 11:08:05;;;;;;;;;;;;;;;18.92;67.25684;100710.4;;;;-73
2023/04/22 11:13:01;;;;;;;;;;;;;;;18.76;67.44727;100706.5;;;;-73
2023/04/22 11:14:17;;;;;;;11.4;5.9;;;;;;;;;;;;;-74
2023/04/22 11:18:01;;;;;;;;;;;;;;;18.6;66.63184;100709;;;;-74
2023/04/22 11:23:01;;;;;;;;;;;;;;;18.41;66.79492;100700.4;;;;-72
2023/04/22 11:28:02;;;;;;;;;;;;;;;18.29;67.5459;100694.6;;;;-73
2023/04/22 11:33:03;;;;;;;;;;;;;;;18.3;67.98828;100695.6;;;;-70
2023/04/22 11:38:02;;;;;;;;;;;;;;;18.27;67.2832;100693.2;;;;-70
2023/04/22 11:43:02;;;;;;;;;;;;;;;18.2;67.34082;100703.1;;;;-71
2023/04/22 11:44:31;;;;;;;9.1;6.7;;;;;;;;;;;;;-74
2023/04/22 11:48:01;;;;;;;;;;;;;;;18.12;67.43066;100705.1;;;;-70
2023/04/22 11:53:01;;;;;;;;;;;;;;;18.04;67.53027;100704.1;;;;-69
2023/04/22 11:58:02;;;;;;;;;;;;;;;17.91;68.25684;100690.5;;;;-70
2023/04/22 12:03:06;;;;;;;;;;;;;;;17.77;69.22754;100688.5;;;;-69
2023/04/22 12:08:00;;;;;;;;;;;;;;;17.49;69.94043;100715.5;;;;-69
2023/04/22 12:13:03;;;;;;;;;;;;;;;17.15;71.25;100732.4;;;;-70
2023/04/22 12:14:20;;;;;;;12.5;8.4;;;;;;;;;;;;;-71
2023/04/22 12:18:00;;;;;;;;;;;;;;;16.84;71.75098;100747.9;;;;-71
2023/04/22 12:23:01;;;;;;;;;;;;;;;16.52;72.3291;100727.3;;;;-72
2023/04/22 12:28:01;;;;;;;;;;;;;;;16.27;72.98535;100725.6;;;;-72
2023/04/22 12:33:00;;;;;;;;;;;;;;;16;73.21094;100723.8;;;;-71
2023/04/22 12:38:01;;;;;;;;;;;;;;;15.68;73.28223;100717.3;;;;-71
2023/04/22 12:43:04;;;;;;;;;;;;;;;15.45;73.39941;100723.7;;;;-72
2023/04/22 12:44:23;;;;;;;15.2;10.4;;;;;;;;;;;;;-73
2023/04/22 12:48:02;;;;;;;;;;;;;;;15.16;74.22656;100728.1;;;;-71
2023/04/22 12:53:01;;;;;;;;;;;;;;;14.96;74.16895;100771.1;;;;-72
2023/04/22 12:58:03;;;;;;;;;;;;;;;14.75;74.60449;100728.6;;;;-72
2023/04/22 13:03:01;;;;;;;;;;;;;;;14.58;74.75586;100755.4;;;;-71
2023/04/22 13:08:07;;;;;;;;;;;;;;;14.47;74.83594;100790.1;;;;-73
2023/04/22 13:13:12;;;;;;;;;;;;;;;14.26;75.79492;100721.2;;;;-72
2023/04/22 13:14:27;;;;;;;21;12.5;;;;;;;;;;;;;-72
2023/04/22 13:18:01;;;;;;;;;;;;;;;14.16;75.36426;100668.8;;;;-72
2023/04/22 13:23:09;;;;;;;;;;;;;;;14.05;75.26953;100658.8;;;;-72
2023/04/22 13:28:00;;;;;;;;;;;;;;;14.03;74.92969;100687.9;;;;-72
2023/04/22 13:33:01;;;;;;;;;;;;;;;14;74.44336;100714.1;;;;-72
2023/04/22 13:38:01;;;;;;;;;;;;;;;13.95;74.32324;100721;;;;-73
2023/04/22 13:43:01;;;;;;;;;;;;;;;13.85;74.41797;100718.3;;;;-71
2023/04/22 13:44:29;;;;;;;22.4;12.7;;;;;;;;;;;;;-72
2023/04/22 13:48:00;;;;;;;;;;;;;;;13.72;74.73145;100703.6;;;;-74
2023/04/22 13:53:02;;;;;;;;;;;;;;;13.64;75.04297;100723.6;;;;-72
2023/04/22 13:58:08;;;;;;;;;;;;;;;13.53;75.08984;100710.6;;;;-72
2023/04/22 14:03:03;;;;;;;;;;;;;;;13.43;75.28516;100724.3;;;;-73
2023/04/22 14:08:02;;;;;;;;;;;;;;;13.32;75.35547;100715.9;;;;-71
2023/04/22 14:13:02;;;;;;;;;;;;;;;13.24;75.77734;100729.3;;;;-71
2023/04/22 14:14:34;;;;;;;23.5;13.1;;;;;;;;;;;;;-70
2023/04/22 14:18:00;;;;;;;;;;;;;;;13.13;75.36719;100734.3;;;;-71
2023/04/22 14:23:03;;;;;;;;;;;;;;;13.03;74.95996;100741.3;;;;-71
2023/04/22 14:28:03;;;;;;;;;;;;;;;12.94;74.99023;100745.7;;;;-73
2023/04/22 14:33:00;;;;;;;;;;;;;;;12.82;75.24707;100752;;;;-72
2023/04/22 14:38:02;;;;;;;;;;;;;;;12.69;75.26855;100752.8;;;;-70
2023/04/22 14:43:14;;;;;;;;;;;;;;;12.59;75.16406;100761;;;;-72
2023/04/22 14:44:34;;;;;;;27.3;14.3;;;;;;;;;;;;;-72
2023/04/22 14:48:00;;;;;;;;;;;;;;;12.48;74.98828;100762.8;;;;-72
2023/04/22 14:53:00;;;;;;;;;;;;;;;12.38;75.32715;100767.1;;;;-72
2023/04/22 14:58:02;;;;;;;;;;;;;;;12.3;75.1582;100761.9;;;;-73
2023/04/22 15:03:06;;;;;;;;;;;;;;;12.19;75.75195;100758.9;;;;-71
2023/04/22 15:08:00;;;;;;;;;;;;;;;12.06;75.01758;100769.7;;;;-71
2023/04/22 15:13:00;;;;;;;;;;;;;;;11.99;75.4502;100786.1;;;;-71
2023/04/22 15:14:45;;;;;;;24.8;13.1;;;;;;;;;;;;;-71
2023/04/22 15:18:00;;;;;;;;;;;;;;;11.89;75.39844;100788.6;;;;-71
2023/04/22 15:23:00;;;;;;;;;;;;;;;11.78;75.57031;100796.4;;;;-72
2023/04/22 15:28:00;;;;;;;;;;;;;;;11.67;75.48438;100796;;;;-71
2023/04/22 15:33:00;;;;;;;;;;;;;;;11.61;75.54004;100791.1;;;;-72
2023/04/22 15:38:01;;;;;;;;;;;;;;;11.55;75.69727;100796.7;;;;-70
2023/04/22 15:43:02;;;;;;;;;;;;;;;11.5;75.73242;100793.9;;;;-70
2023/04/22 15:44:39;;;;;;;19.8;10.6;;;;;;;;;;;;;-71
2023/04/22 15:48:00;;;;;;;;;;;;;;;11.45;76.0791;100790.1;;;;-71
2023/04/22 15:53:01;;;;;;;;;;;;;;;11.43;75.91016;100781.8;;;;-71
2023/04/22 15:58:01;;;;;;;;;;;;;;;11.43;75.81934;100778;;;;-72
2023/04/22 16:03:03;;;;;;;;;;;;;;;11.46;75.41504;100776.4;;;;-73
2023/04/22 16:08:02;;;;;;;;;;;;;;;11.48;75.48438;100776.4;;;;-73
2023/04/22 16:13:03;;;;;;;;;;;;;;;11.48;75.5293;100788.9;;;;-72
2023/04/22 16:14:40;;;;;;;18.3;9.3;;;;;;;;;;;;;-72
2023/04/22 16:18:01;;;;;;;;;;;;;;;11.47;75.94922;100778.9;;;;-72
2023/04/22 16:23:00;;;;;;;;;;;;;;;11.45;76.03516;100779.5;;;;-71
2023/04/22 16:28:00;;;;;;;;;;;;;;;11.45;75.73535;100777.1;;;;-72
2023/04/22 16:33:03;;;;;;;;;;;;;;;11.49;75.77539;100784.8;;;;-72
2023/04/22 16:38:01;;;;;;;;;;;;;;;11.56;76.09863;100777.5;;;;-73
2023/04/22 16:43:04;;;;;;;;;;;;;;;11.63;75.92188;100788.5;;;;-70
2023/04/22 16:44:41;;;;;;;17.8;8.4;;;;;;;;;;;;;-70
2023/04/22 16:48:02;;;;;;;;;;;;;;;11.7;76.09961;100781.7;;;;-70
2023/04/22 16:53:00;;;;;;;;;;;;;;;11.75;75.47656;100784.7;;;;-71
2023/04/22 16:58:01;;;;;;;;;;;;;;;11.8;75.13965;100782.8;;;;-70
2023/04/22 17:03:00;;;;;;;;;;;;;;;11.83;75.34375;100793;;;;-71
2023/04/22 17:08:00;;;;;;;;;;;;;;;11.81;75.31836;100782.7;;;;-71
2023/04/22 17:13:04;;;;;;;;;;;;;;;11.82;75.12207;100774.9;;;;-77
2023/04/22 17:14:44;;;;;;;17.3;9;;;;;;;;;;;;;-75
2023/04/22 17:18:01;;;;;;;;;;;;;;;11.83;75.2002;100773;;;;-72
2023/04/22 17:23:01;;;;;;;;;;;;;;;11.87;74.91895;100767.5;;;;-72
2023/04/22 17:28:00;;;;;;;;;;;;;;;11.91;75.14844;100775.3;;;;-71
2023/04/22 17:33:00;;;;;;;;;;;;;;;11.89;75.21973;100778.8;;;;-70
2023/04/22 17:38:00;;;;;;;;;;;;;;;11.84;75.78125;100775.6;;;;-71
2023/04/22 17:43:01;;;;;;;;;;;;;;;11.79;75.40332;100775.5;;;;-74
2023/04/22 17:44:45;;;;;;;19.1;9.8;;;;;;;;;;;;;-72
2023/04/22 17:48:00;;;;;;;;;;;;;;;11.73;75.61621;100766.7;;;;-71
2023/04/22 17:53:02;;;;;;;;;;;;;;;11.66;75.94922;100768.1;;;;-71
2023/04/22 17:58:03;;;;;;;;;;;;;;;11.57;75.71289;100766.7;;;;-71
2023/04/22 18:03:05;;;;;;;;;;;;;;;11.49;75.43066;100772.6;;;;-74
2023/04/22 18:08:01;;;;;;;;;;;;;;;11.41;75.32813;100773.1;;;;-70
2023/04/22 18:13:00;;;;;;;;;;;;;;;11.32;75.78027;100775;;;;-72
2023/04/22 18:14:46;;;;;;;17.3;9.6;;;;;;;;;;;;;-70
2023/04/22 18:18:00;;;;;;;;;;;;;;;11.22;75.28418;100770.2;;;;-72
2023/04/22 18:23:00;;;;;;;;;;;;;;;11.1;75.60742;100774.3;;;;-69
2023/04/22 18:28:00;;;;;;;;;;;;;;;10.98;75.8418;100786.2;;;;-70
2023/04/22 18:33:00;;;;;;;;;;;;;;;10.87;75.86621;100795.9;;;;-70
2023/04/22 18:38:00;;;;;;;;;;;;;;;10.74;75.8457;100799.4;;;;-71
2023/04/22 18:43:00;;;;;;;;;;;;;;;10.64;76.73535;100806.6;;;;-70
2023/04/22 18:44:48;;;;;;;16.3;9.4;;;;;;;;;;;;;-70
2023/04/22 18:48:01;;;;;;;;;;;;;;;10.53;76.54004;100812.8;;;;-71
2023/04/22 18:53:00;;;;;;;;;;;;;;;10.37;76.62402;100820.5;;;;-70
2023/04/22 18:58:00;;;;;;;;;;;;;;;10.27;76.77246;100824.3;;;;-70
2023/04/22 19:03:00;;;;;;;;;;;;;;;10.15;76.96973;100833.2;;;;-70
2023/04/22 19:08:01;;;;;;;;;;;;;;;10.04;77.37109;100836.5;;;;-71
2023/04/22 19:13:00;;;;;;;;;;;;;;;9.91;77.72461;100844.6;;;;-69
2023/04/22 19:14:53;;;;;;;15.9;8.4;;;;;;;;;;;;;-70
2023/04/22 19:18:02;;;;;;;;;;;;;;;9.79;78.00195;100850.4;;;;-70
2023/04/22 19:23:00;;;;;;;;;;;;;;;9.69;77.74023;100858.6;;;;-71
2023/04/22 19:28:01;;;;;;;;;;;;;;;9.55;77.83594;100865.7;;;;-70
2023/04/22 19:33:00;;;;;;;;;;;;;;;9.45;78.22852;100872.8;;;;-69
2023/04/22 19:38:01;;;;;;;;;;;;;;;9.36;78.34473;100874;;;;-69
2023/04/22 19:43:01;;;;;;;;;;;;;;;9.26;78.16113;100877.6;;;;-69
2023/04/22 19:44:53;;;;;;;15.4;7.5;;;;;;;;;;;;;-68
2023/04/22 19:48:01;;;;;;;;;;;;;;;9.17;78.39844;100877.9;;;;-69
2023/04/22 19:53:06;;;;;;;;;;;;;;;9.05;78.71973;100874;;;;-69
2023/04/22 19:58:01;;;;;;;;;;;;;;;8.94;78.29102;100874.8;;;;-71
2023/04/22 20:03:00;;;;;;;;;;;;;;;8.87;78.28906;100877.3;;;;-69
2023/04/22 20:08:02;;;;;;;;;;;;;;;8.77;78.16309;100873.2;;;;-71
2023/04/22 20:13:03;;;;;;;;;;;;;;;8.67;78.27539;100876.6;;;;-68
2023/04/22 20:14:54;;;;;;;15;7.4;;;;;;;;;;;;;-68
2023/04/22 20:18:00;;;;;;;;;;;;;;;8.57;78.14746;100882.4;;;;-71
2023/04/22 20:23:08;;;;;;;;;;;;;;;8.46;78.28223;100885.1;;;;-70
2023/04/22 20:28:01;;;;;;;;;;;;;;;8.38;78.31152;100878.9;;;;-70
2023/04/22 20:33:00;;;;;;;;;;;;;;;8.28;78.50293;100870.5;;;;-71
2023/04/22 20:38:01;;;;;;;;;;;;;;;8.2;78.24512;100866.7;;;;-71
2023/04/22 20:43:01;;;;;;;;;;;;;;;8.12;78.58496;100856.7;;;;-69
2023/04/22 20:44:56;;;;;;;14.5;7.1;;;;;;;;;;;;;-70
2023/04/22 20:48:00;;;;;;;;;;;;;;;8.05;78.42871;100850.5;;;;-72
2023/04/22 20:53:03;;;;;;;;;;;;;;;8.01;78.83984;100845.1;;;;-70
2023/04/22 20:58:00;;;;;;;;;;;;;;;7.93;78.28613;100845.7;;;;-70
2023/04/22 21:03:01;;;;;;;;;;;;;;;7.87;78.50586;100840.3;;;;-72
2023/04/22 21:08:03;;;;;;;;;;;;;;;7.85;78.27344;100839;;;;-71
2023/04/22 21:13:02;;;;;;;;;;;;;;;7.78;78.68848;100835.6;;;;-69
2023/04/22 21:14:56;;;;;;;14.8;7.5;;;;;;;;;;;;;-70
2023/04/22 21:18:01;;;;;;;;;;;;;;;7.72;78.18066;100833.9;;;;-72
2023/04/22 21:23:05;;;;;;;;;;;;;;;7.69;78.33105;100831.8;;;;-70
2023/04/22 21:28:01;;;;;;;;;;;;;;;7.66;78.7334;100825;;;;-70
2023/04/22 21:33:00;;;;;;;;;;;;;;;7.67;78.43652;100825.4;;;;-69
2023/04/22 21:38:00;;;;;;;;;;;;;;;7.61;78.53613;100825.6;;;;-69
2023/04/22 21:43:03;;;;;;;;;;;;;;;7.56;78.61426;100828.7;;;;-70
2023/04/22 21:48:04;;;;;;;;;;;;;;;7.55;78.55762;100829.3;;;;-71
2023/04/22 21:53:03;;;;;;;;;;;;;;;7.53;78.85156;100826.9;;;;-69
2023/04/22 21:58:00;;;;;;;;;;;;;;;7.5;79;100830;;;;-71
2023/04/22 22:03:03;;;;;;;;;;;;;;;7.47;79.24609;100829.2;;;;-71
2023/04/22 22:08:00;;;;;;;;;;;;;;;7.44;78.57129;100827.4;;;;-70
2023/04/22 22:13:00;;;;;;;;;;;;;;;7.41;78.6543;100822.5;;;;-70
2023/04/22 22:14:58;;;;;;;19.2;9.4;;;;;;;;;;;;;-70
2023/04/22 22:18:02;;;;;;;;;;;;;;;7.39;79.00293;100823.9;;;;-70
2023/04/22 22:23:00;;;;;;;;;;;;;;;7.39;78.67285;100821.6;;;;-71
2023/04/22 22:28:00;;;;;;;;;;;;;;;7.4;79.5625;100831.1;;;;-72
2023/04/22 22:33:00;;;;;;;;;;;;;;;7.36;79.30371;100830.9;;;;-69
2023/04/22 22:38:00;;;;;;;;;;;;;;;7.39;79.33203;100837.3;;;;-70
2023/04/22 22:43:02;;;;;;;;;;;;;;;7.37;79.08594;100841.1;;;;-71
2023/04/22 22:44:59;;;;;;;26.5;11.4;;;;;;;;;;;;;-71
2023/04/22 22:48:00;;;;;;;;;;;;;;;7.36;79.31445;100839.3;;;;-69
2023/04/22 22:53:05;;;;;;;;;;;;;;;7.37;79.50488;100839.6;;;;-70
2023/04/22 22:58:00;;;;;;;;;;;;;;;7.37;79.3623;100846.1;;;;-73
2023/04/22 23:03:04;;;;;;;;;;;;;;;7.39;79.51953;100843.4;;;;-70
2023/04/22 23:08:00;;;;;;;;;;;;;;;7.38;79.38574;100839.5;;;;-70
2023/04/22 23:13:00;;;;;;;;;;;;;;;7.35;79.54395;100849.8;;;;-69
2023/04/22 23:15:00;;;;;;;27.7;12.4;;;;;;;;;;;;;-71
2023/04/22 23:18:00;;;;;;;;;;;;;;;7.35;80.26855;100851.5;;;;-71
2023/04/22 23:23:01;;;;;;;;;;;;;;;7.37;79.98633;100847.6;;;;-69
2023/04/22 23:28:01;;;;;;;;;;;;;;;7.33;79.91406;100848.2;;;;-71
2023/04/22 23:33:04;;;;;;;;;;;;;;;7.35;79.85156;100846.7;;;;-71
2023/04/22 23:38:01;;;;;;;;;;;;;;;7.33;79.99023;100849.7;;;;-70
2023/04/22 23:43:00;;;;;;;;;;;;;;;7.35;80.49902;100837.4;;;;-70
2023/04/22 23:45:01;;;;;;;34.6;15.4;;;;;;;;;;;;;-70
2023/04/22 23:48:00;;;;;;;;;;;;;;;7.33;80.35449;100831.4;;;;-69
2023/04/22 23:53:00;;;;;;;;;;;;;;;7.32;80.39551;100826.4;;;;-70
2023/04/22 23:58:00;;;;;;;;;;;;;;;7.31;80.41699;100825.6;;;;-70
